Airport Name : Jackson Hole

Other Name : Jackson Hole

ICAO : KJAC

IATA : JAC

FAA : JAC

Latitude : 43.607333

Longitude : -110.73775

Country : United States

Local Date and Time : 27 Nov 2020 02:14

 

TAF (Terminal Aerodrome Forecast)

KJAC 270529Z 2706/2806 01005KT P6SM SCT050 FM271000 VRB03KT P6SM VCFG FEW005 SCT050 TEMPO 2712/2715 2SM BR BKN004 FM271700 VRB02KT P6SM SKC

 

METAR (METeorological Aerodrome Report)

KJAC 270906Z AUTO 02008KT 9SM -SN BKN019 M16/M18 A3032 RMK AO2 P0000 FZRANO

KJAC 270856Z AUTO 02006KT 9SM -SN SCT019 M16/M18 A3032 RMK AO2 SLP348 P0000 60000 T11561178 51010 FZRANO

KJAC 270835Z AUTO 02007KT 9SM -SN FEW012 SCT019 M16/M17 A3031 RMK AO2 P0000 FZRANO

KJAC 270756Z AUTO 03005KT 9SM -SN OVC017 M14/M17 A3030 RMK AO2 SNB16 SLP343 P0000 T11441167 FZRANO

KJAC 270737Z AUTO 04006KT 9SM -SN BKN015 M15/M17 A3030 RMK AO2 SNB16 P0000 FZRANO

KJAC 270705Z AUTO 04004KT 10SM SCT017 SCT032 M14/M16 A3030 RMK AO2 FZRANO

KJAC 270656Z AUTO 02006KT 10SM BKN017 BKN032 M14/M16 A3030 RMK AO2 SLP332 T11441161 400061167 FZRANO

KJAC 270612Z AUTO 02006KT 10SM SCT015 BKN034 M15/M17 A3029 RMK AO2 FZRANO

KJAC 270556Z AUTO 01006KT 10SM BKN015 M15/M17 A3028 RMK AO2 SLP346 T11501172 11061 21150 51012 FZRANO

To Charter a Jet Click here.